EST,Max TemperatureF,Mean TemperatureF,Min TemperatureF,Max Dew PointF,MeanDew PointF,Min DewpointF,Max Humidity, Mean Humidity, Min Humidity, Max Sea Level PressureIn, Mean Sea Level PressureIn, Min Sea Level PressureIn, Max VisibilityMiles, Mean VisibilityMiles, Min VisibilityMiles, Max Wind SpeedMPH, Mean Wind SpeedMPH, Max Gust SpeedMPH,PrecipitationIn, CloudCover, Events, WindDirDegrees
2011-11-1,60,48,36,34,29,26,76,53,30,30.34,30.28,30.22,10,10,10,7,4,,0.00,0,,233
2011-11-2,66,54,41,34,31,25,65,44,23,30.38,30.28,30.18,10,10,10,18,4,25,0.00,0,,177
2011-11-3,68,55,41,44,32,24,86,53,19,30.17,30.01,29.84,10,10,9,18,4,31,0.27,1,Rain,124
2011-11-4,58,51,43,45,41,31,86,67,47,30.17,29.92,29.78,10,8,2,16,5,22,0.05,5,Rain,33
2011-11-5,52,43,33,29,23,14,75,51,26,30.35,30.28,30.16,10,10,10,15,6,24,0.00,0,,102
2011-11-6,62,49,36,37,31,20,75,55,35,30.43,30.37,30.33,10,10,10,14,6,22,0.00,0,,125
2011-11-7,67,54,40,40,37,35,79,57,34,30.41,30.34,30.26,10,10,10,10,2,16,0.00,0,,193
2011-11-8,71,56,41,40,36,27,82,52,22,30.28,30.21,30.13,10,10,10,10,4,16,0.00,0,,134
2011-11-9,68,59,49,52,43,37,86,60,34,30.11,30.01,29.94,10,10,9,14,5,20,0.01,4,Rain,192
2011-11-10,56,45,33,52,32,20,92,69,45,30.02,29.96,29.89,10,8,1,21,9,29,T,7,Snow,298
2011-11-11,43,36,29,25,20,15,85,59,33,30.13,30.03,29.94,10,8,0,18,11,29,0.01,4,Snow,287
2011-11-12,59,49,38,26,21,15,45,33,21,30.21,30.15,30.09,10,10,10,23,11,32,0.00,0,,240
2011-11-13,61,56,50,39,25,10,50,34,18,30.11,30.04,29.99,10,10,10,28,9,40,0.00,0,,215
2011-11-14,72,64,55,51,47,41,67,56,44,30.01,29.95,29.87,10,10,10,26,14,38,0.00,2,,242
2011-11-15,64,58,52,56,51,49,93,78,63,30.01,29.96,29.86,10,6,1,22,5,31,0.38,7,Rain,101
2011-11-16,64,55,45,57,49,41,89,81,72,29.95,29.87,29.73,10,8,1,15,5,22,0.84,8,Rain,312
2011-11-17,46,38,29,43,30,10,92,70,47,30.32,30.05,29.90,10,7,0,21,9,26,0.13,7,Rain-Snow,312
2011-11-18,47,35,23,14,11,8,59,42,25,30.48,30.38,30.33,10,10,10,15,6,21,0.00,0,,187
2011-11-19,59,45,30,39,25,11,59,43,26,30.39,30.29,30.21,10,10,10,20,7,25,0.00,0,,163
2011-11-20,68,60,51,54,48,40,75,64,52,30.28,30.21,30.15,10,10,9,17,8,25,0.06,5,Rain,245
2011-11-21,62,59,55,56,54,51,93,86,78,30.29,30.21,30.14,10,7,0,13,5,17,0.23,8,Fog-Rain,262
2011-11-22,67,61,54,56,53,50,87,75,63,30.19,30.01,29.79,10,9,2,21,6,36,0.26,7,Rain,208
2011-11-23,58,49,39,54,41,34,86,78,70,30.26,29.99,29.70,10,8,2,28,12,40,0.24,7,Rain,296
2011-11-24,56,46,36,36,31,26,89,61,32,30.39,30.33,30.26,10,10,10,10,6,15,0.00,2,,276
2011-11-25,67,54,40,28,17,9,60,35,10,30.34,30.27,30.21,10,10,10,14,7,21,0.00,0,,245
2011-11-26,63,51,38,43,28,9,61,39,16,30.31,30.20,30.10,10,10,10,21,6,31,0.00,0,,199
2011-11-27,63,59,54,49,45,43,66,57,48,30.09,30.00,29.93,10,10,10,22,12,37,0.00,4,,182
2011-11-28,62,60,57,54,51,48,86,77,67,29.96,29.85,29.65,10,8,2,31,12,55,0.27,8,Rain,127
2011-11-29,59,46,32,54,33,28,89,69,49,29.75,29.69,29.60,10,7,1,20,9,31,0.67,7,Rain-Snow,226
2011-11-30,35,32,29,30,27,21,89,81,72,30.22,29.91,29.72,10,6,1,21,12,30,0.01,7,Snow,281